sensor_id;sensor_type;location;lat;lon;timestamp;pressure;altitude;pressure_sealevel;temperature;humidity
74427;BME280;62859;53.906;27.430;2023-04-24T00:01:29;1005.6;;;15.9;37
74427;BME280;62859;53.906;27.430;2023-04-24T00:06:37;1005.6;;;15.9;36.9
74427;BME280;62859;53.906;27.430;2023-04-24T00:11:51;1005.6;;;15.8;37.1
74427;BME280;62859;53.906;27.430;2023-04-24T00:16:31;1005.5;;;15.8;37.2
74427;BME280;62859;53.906;27.430;2023-04-24T00:21:39;1005.4;;;15.7;37.4
74427;BME280;62859;53.906;27.430;2023-04-24T00:26:39;1005.4;;;15.7;37.5
74427;BME280;62859;53.906;27.430;2023-04-24T00:31:29;1005.4;;;15.7;37.6
74427;BME280;62859;53.906;27.430;2023-04-24T00:36:27;1005.4;;;15.6;37.8
74427;BME280;62859;53.906;27.430;2023-04-24T00:41:07;1005.4;;;15.6;37.9
74427;BME280;62859;53.906;27.430;2023-04-24T00:46:49;1005.3;;;15.5;38
74427;BME280;62859;53.906;27.430;2023-04-24T00:51:41;1005.4;;;15.4;38
74427;BME280;62859;53.906;27.430;2023-04-24T00:56:07;1005.3;;;15.4;38.1
74427;BME280;62859;53.906;27.430;2023-04-24T01:01:51;1005.3;;;15.4;38.2
74427;BME280;62859;53.906;27.430;2023-04-24T01:06:29;1005.3;;;15.4;38.1
74427;BME280;62859;53.906;27.430;2023-04-24T01:11:07;1005.3;;;15.4;38.2
74427;BME280;62859;53.906;27.430;2023-04-24T01:16:51;1005.3;;;15.4;38.3
74427;BME280;62859;53.906;27.430;2023-04-24T01:21:51;1005.3;;;15.5;38.1
74427;BME280;62859;53.906;27.430;2023-04-24T01:26:19;1005.3;;;15.4;38.3
74427;BME280;62859;53.906;27.430;2023-04-24T01:31:45;1005.3;;;15.4;38.3
74427;BME280;62859;53.906;27.430;2023-04-24T01:36:51;1005.3;;;15.5;38.3
74427;BME280;62859;53.906;27.430;2023-04-24T01:41:43;1005.2;;;15.3;38.5
74427;BME280;62859;53.906;27.430;2023-04-24T01:46:07;1005.2;;;15.3;38.5
74427;BME280;62859;53.906;27.430;2023-04-24T01:51:09;1005.2;;;15.3;38.6
74427;BME280;62859;53.906;27.430;2023-04-24T01:56:39;1005.2;;;15.3;38.7
74427;BME280;62859;53.906;27.430;2023-04-24T02:01:37;1005.2;;;15.2;38.8
74427;BME280;62859;53.906;27.430;2023-04-24T02:06:07;1005.1;;;15.2;38.9
74427;BME280;62859;53.906;27.430;2023-04-24T02:11:39;1005.1;;;15.1;39.1
74427;BME280;62859;53.906;27.430;2023-04-24T02:16:37;1005.1;;;15.1;39.1
74427;BME280;62859;53.906;27.430;2023-04-24T02:21:07;1005.1;;;15.1;39.1
74427;BME280;62859;53.906;27.430;2023-04-24T02:26:17;1005;;;15;39.4
74427;BME280;62859;53.906;27.430;2023-04-24T02:31:35;1005;;;15;39.5
74427;BME280;62859;53.906;27.430;2023-04-24T02:36:15;1005;;;15;39.4
74427;BME280;62859;53.906;27.430;2023-04-24T02:41:41;1005;;;15;39.4
74427;BME280;62859;53.906;27.430;2023-04-24T02:46:43;1005;;;14.9;39.8
74427;BME280;62859;53.906;27.430;2023-04-24T02:51:17;1005;;;14.7;40.1
74427;BME280;62859;53.906;27.430;2023-04-24T02:56:51;1005;;;14.6;40.3
74427;BME280;62859;53.906;27.430;2023-04-24T03:01:29;1005;;;14.6;40.3
74427;BME280;62859;53.906;27.430;2023-04-24T03:06:41;1005;;;14.5;40.6
74427;BME280;62859;53.906;27.430;2023-04-24T03:11:39;1005;;;14.5;40.6
74427;BME280;62859;53.906;27.430;2023-04-24T03:16:51;1005;;;14.5;40.8
74427;BME280;62859;53.906;27.430;2023-04-24T03:21:07;1005;;;14.5;40.8
74427;BME280;62859;53.906;27.430;2023-04-24T03:26:37;1005;;;14.5;40.9
74427;BME280;62859;53.906;27.430;2023-04-24T03:31:37;1005;;;14.4;41.1
74427;BME280;62859;53.906;27.430;2023-04-24T03:36:43;1005;;;14.5;41
74427;BME280;62859;53.906;27.430;2023-04-24T03:41:13;1005;;;14.6;40.9
74427;BME280;62859;53.906;27.430;2023-04-24T03:46:13;1005;;;14.6;40.8
74427;BME280;62859;53.906;27.430;2023-04-24T03:51:49;1005;;;14.6;40.7
74427;BME280;62859;53.906;27.430;2023-04-24T03:56:51;1005.1;;;14.6;40.7
74427;BME280;62859;53.906;27.430;2023-04-24T04:01:07;1005;;;14.6;40.8
74427;BME280;62859;53.906;27.430;2023-04-24T04:06:49;1005.1;;;14.5;41
74427;BME280;62859;53.906;27.430;2023-04-24T04:11:29;1005.1;;;14.5;41
74427;BME280;62859;53.906;27.430;2023-04-24T04:16:29;1005.1;;;14.5;41.1
74427;BME280;62859;53.906;27.430;2023-04-24T04:21:17;1005.1;;;14.6;41.2
74427;BME280;62859;53.906;27.430;2023-04-24T04:26:51;1005.1;;;14.6;41.2
74427;BME280;62859;53.906;27.430;2023-04-24T04:31:07;1005.1;;;14.6;41.1
74427;BME280;62859;53.906;27.430;2023-04-24T04:36:51;1005.1;;;14.6;41.1
74427;BME280;62859;53.906;27.430;2023-04-24T04:41:51;1005.2;;;14.6;41.4
74427;BME280;62859;53.906;27.430;2023-04-24T04:46:19;1005.2;;;14.5;41.6
74427;BME280;62859;53.906;27.430;2023-04-24T04:51:25;1005.2;;;14.5;41.6
74427;BME280;62859;53.906;27.430;2023-04-24T04:56:43;1005.2;;;14.6;41
74427;BME280;62859;53.906;27.430;2023-04-24T05:01:21;1005.2;;;14.7;40.3
74427;BME280;62859;53.906;27.430;2023-04-24T05:06:35;1005.2;;;14.8;40.1
74427;BME280;62859;53.906;27.430;2023-04-24T05:11:19;1005.2;;;14.8;39.9
74427;BME280;62859;53.906;27.430;2023-04-24T05:16:51;1005.2;;;14.9;39.8
74427;BME280;62859;53.906;27.430;2023-04-24T05:21:39;1005.2;;;14.9;39.7
74427;BME280;62859;53.906;27.430;2023-04-24T05:26:27;1005.2;;;14.9;39.7
74427;BME280;62859;53.906;27.430;2023-04-24T05:31:31;1005.2;;;15;39.6
74427;BME280;62859;53.906;27.430;2023-04-24T05:36:37;1005.2;;;15.1;39.6
74427;BME280;62859;53.906;27.430;2023-04-24T05:41:07;1005.2;;;15.1;39.7
74427;BME280;62859;53.906;27.430;2023-04-24T05:46:39;1005.2;;;15.2;39.5
74427;BME280;62859;53.906;27.430;2023-04-24T05:51:41;1005.2;;;15.4;39.2
74427;BME280;62859;53.906;27.430;2023-04-24T05:56:07;1005.1;;;15.5;38.9
74427;BME280;62859;53.906;27.430;2023-04-24T06:01:51;1005.2;;;15.6;38.8
74427;BME280;62859;53.906;27.430;2023-04-24T06:06:27;1005.2;;;15.7;38.6
74427;BME280;62859;53.906;27.430;2023-04-24T06:11:17;1005.3;;;15.7;38.1
74427;BME280;62859;53.906;27.430;2023-04-24T06:16:35;1005.2;;;15.7;37.7
74427;BME280;62859;53.906;27.430;2023-04-24T06:21:49;1005.2;;;15.7;37.9
74427;BME280;62859;53.906;27.430;2023-04-24T06:26:29;1005.3;;;15.7;37.9
74427;BME280;62859;53.906;27.430;2023-04-24T06:31:21;1005.3;;;15.7;37.9
74427;BME280;62859;53.906;27.430;2023-04-24T06:36:23;1005.3;;;15.7;38.1
74427;BME280;62859;53.906;27.430;2023-04-24T06:41:31;1005.3;;;15.8;37.9
74427;BME280;62859;53.906;27.430;2023-04-24T06:46:25;1005.3;;;15.9;38.1
74427;BME280;62859;53.906;27.430;2023-04-24T06:51:07;1005.3;;;15.8;38.3
74427;BME280;62859;53.906;27.430;2023-04-24T06:56:45;1005.3;;;15.9;38.2
74427;BME280;62859;53.906;27.430;2023-04-24T07:01:47;1005.3;;;15.9;38.1
74427;BME280;62859;53.906;27.430;2023-04-24T07:06:19;1005.3;;;16.1;38.1
74427;BME280;62859;53.906;27.430;2023-04-24T07:11:47;1005.3;;;16.2;38
74427;BME280;62859;53.906;27.430;2023-04-24T07:16:27;1005.3;;;16.4;37.6
74427;BME280;62859;53.906;27.430;2023-04-24T07:21:07;1005.3;;;16.6;37.6
74427;BME280;62859;53.906;27.430;2023-04-24T07:26:29;1005.2;;;16.7;37.5
74427;BME280;62859;53.906;27.430;2023-04-24T07:31:53;1005.2;;;16.9;37
74427;BME280;62859;53.906;27.430;2023-04-24T07:36:07;1005.2;;;17.2;36.6
74427;BME280;62859;53.906;27.430;2023-04-24T07:41:17;1005.3;;;17.4;36.2
74427;BME280;62859;53.906;27.430;2023-04-24T07:46:51;1005.2;;;17.6;36
74427;BME280;62859;53.906;27.430;2023-04-24T07:51:53;1005.2;;;17.9;34.5
74427;BME280;62859;53.906;27.430;2023-04-24T07:56:13;1005.2;;;18.2;34
74427;BME280;62859;53.906;27.430;2023-04-24T08:01:07;1005.1;;;18.5;33.9
74427;BME280;62859;53.906;27.430;2023-04-24T08:06:53;1005.2;;;18.9;32.6
74427;BME280;62859;53.906;27.430;2023-04-24T08:11:31;1005.1;;;19.4;31.5
74427;BME280;62859;53.906;27.430;2023-04-24T08:16:29;1005.1;;;20;30.6
74427;BME280;62859;53.906;27.430;2023-04-24T08:21:17;1005.1;;;20.6;29.7
74427;BME280;62859;53.906;27.430;2023-04-24T08:26:39;1005;;;21.3;28.3
74427;BME280;62859;53.906;27.430;2023-04-24T08:31:29;1005.1;;;21.8;27.2
74427;BME280;62859;53.906;27.430;2023-04-24T08:36:39;1005;;;22.3;26.7
74427;BME280;62859;53.906;27.430;2023-04-24T08:41:07;1005;;;22.8;26.5
74427;BME280;62859;53.906;27.430;2023-04-24T08:46:19;1005;;;23.1;24.9
74427;BME280;62859;53.906;27.430;2023-04-24T08:51:43;1005;;;23.4;24.6
74427;BME280;62859;53.906;27.430;2023-04-24T08:56:43;1004.9;;;23.8;23.8
74427;BME280;62859;53.906;27.430;2023-04-24T09:01:07;1004.9;;;24.2;23.2
74427;BME280;62859;53.906;27.430;2023-04-24T09:06:51;1004.8;;;24.4;22.2
74427;BME280;62859;53.906;27.430;2023-04-24T09:11:27;1004.8;;;24.7;21.3
74427;BME280;62859;53.906;27.430;2023-04-24T09:16:17;1004.8;;;24.9;20.9
74427;BME280;62859;53.906;27.430;2023-04-24T09:21:37;1004.8;;;24.9;20.7
74427;BME280;62859;53.906;27.430;2023-04-24T09:26:55;1004.7;;;25.1;20.6
74427;BME280;62859;53.906;27.430;2023-04-24T09:31:17;1004.9;;;25.3;19.5
74427;BME280;62859;53.906;27.430;2023-04-24T09:36:39;1004.6;;;25.3;19.4
74427;BME280;62859;53.906;27.430;2023-04-24T09:41:43;1004.6;;;25.8;18.9
74427;BME280;62859;53.906;27.430;2023-04-24T09:46:41;1004.6;;;26.1;18.6
74427;BME280;62859;53.906;27.430;2023-04-24T09:51:33;1004.6;;;25.6;18.5
74427;BME280;62859;53.906;27.430;2023-04-24T09:56:25;1004.4;;;24.9;18.7
74427;BME280;62859;53.906;27.430;2023-04-24T10:01:49;1004.4;;;25.2;18.7
74427;BME280;62859;53.906;27.430;2023-04-24T10:06:51;1004.4;;;25.2;18.5
74427;BME280;62859;53.906;27.430;2023-04-24T10:11:31;1004.4;;;25.4;18.3
74427;BME280;62859;53.906;27.430;2023-04-24T10:16:15;1004.4;;;24.7;18.7
74427;BME280;62859;53.906;27.430;2023-04-24T10:21:29;1004.2;;;24.1;19.2
74427;BME280;62859;53.906;27.430;2023-04-24T10:26:07;1004.1;;;24.1;19.3
74427;BME280;62859;53.906;27.430;2023-04-24T10:31:31;1004.1;;;24.7;19
74427;BME280;62859;53.906;27.430;2023-04-24T10:36:51;1004.2;;;24.4;18.9
74427;BME280;62859;53.906;27.430;2023-04-24T10:41:19;1004.2;;;23.5;20
74427;BME280;62859;53.906;27.430;2023-04-24T10:46:19;1004.1;;;23.1;20.6
74427;BME280;62859;53.906;27.430;2023-04-24T10:51:51;1004.1;;;23.2;20.2
74427;BME280;62859;53.906;27.430;2023-04-24T10:56:15;1004.2;;;23.8;19.8
74427;BME280;62859;53.906;27.430;2023-04-24T11:01:37;1004.3;;;24.8;18.6
74427;BME280;62859;53.906;27.430;2023-04-24T11:06:07;1004.2;;;25.5;18
74427;BME280;62859;53.906;27.430;2023-04-24T11:11:45;1004.2;;;25.8;17.7
74427;BME280;62859;53.906;27.430;2023-04-24T11:16:39;1004.1;;;25.3;18.1
74427;BME280;62859;53.906;27.430;2023-04-24T11:21:32;1004.1;;;24.9;18.1
74427;BME280;62859;53.906;27.430;2023-04-24T11:26:29;1004.1;;;24.6;18.4
74427;BME280;62859;53.906;27.430;2023-04-24T11:31:33;1004;;;24.6;18.8
74427;BME280;62859;53.906;27.430;2023-04-24T11:36:07;1003.9;;;24.8;19
74427;BME280;62859;53.906;27.430;2023-04-24T11:41:29;1003.9;;;25.6;18.6
74427;BME280;62859;53.906;27.430;2023-04-24T11:46:07;1003.9;;;26.4;17.8
74427;BME280;62859;53.906;27.430;2023-04-24T11:51:25;1004;;;25.9;18
74427;BME280;62859;53.906;27.430;2023-04-24T11:56:49;1003.9;;;25.4;18.1
74427;BME280;62859;53.906;27.430;2023-04-24T12:01:43;1003.8;;;25.6;17.8
74427;BME280;62859;53.906;27.430;2023-04-24T12:06:19;1003.7;;;26.1;17.7
74427;BME280;62859;53.906;27.430;2023-04-24T12:11:52;1003.7;;;26.6;17.2
74427;BME280;62859;53.906;27.430;2023-04-24T12:16:29;1003.7;;;27.1;16.8
74427;BME280;62859;53.906;27.430;2023-04-24T12:21:29;1003.6;;;26.8;16.9
74427;BME280;62859;53.906;27.430;2023-04-24T12:26:42;1003.5;;;26.9;17.1
74427;BME280;62859;53.906;27.430;2023-04-24T12:31:53;1003.4;;;26.7;17.5
74427;BME280;62859;53.906;27.430;2023-04-24T12:36:20;1003.4;;;26.3;17.4
74427;BME280;62859;53.906;27.430;2023-04-24T12:41:54;1003.4;;;25.5;18.1
74427;BME280;62859;53.906;27.430;2023-04-24T12:46:51;1003.4;;;25;18.5
74427;BME280;62859;53.906;27.430;2023-04-24T12:51:09;1003.3;;;24.3;19.1
74427;BME280;62859;53.906;27.430;2023-04-24T12:56:39;1003.3;;;24;19.6
74427;BME280;62859;53.906;27.430;2023-04-24T13:01:43;1003.2;;;24.9;18.8
74427;BME280;62859;53.906;27.430;2023-04-24T13:06:39;1003.1;;;25.5;18.5
74427;BME280;62859;53.906;27.430;2023-04-24T13:11:17;1003.1;;;25.9;17.6
74427;BME280;62859;53.906;27.430;2023-04-24T13:16:07;1003.1;;;25.8;16.8
74427;BME280;62859;53.906;27.430;2023-04-24T13:21:49;1003.1;;;25.3;17.1
74427;BME280;62859;53.906;27.430;2023-04-24T13:26:37;1003;;;24.7;17.8
74427;BME280;62859;53.906;27.430;2023-04-24T13:31:07;1003;;;24.4;18
74427;BME280;62859;53.906;27.430;2023-04-24T13:36:31;1002.9;;;24;18.1
74427;BME280;62859;53.906;27.430;2023-04-24T13:41:37;1002.9;;;24.5;18.2
74427;BME280;62859;53.906;27.430;2023-04-24T13:46:07;1003;;;24.7;18.8
74427;BME280;62859;53.906;27.430;2023-04-24T13:51:29;1002.9;;;24.2;19.4
74427;BME280;62859;53.906;27.430;2023-04-24T13:56:41;1002.8;;;23.7;19.9
74427;BME280;62859;53.906;27.430;2023-04-24T14:01:19;1002.7;;;23.1;20.5
74427;BME280;62859;53.906;27.430;2023-04-24T14:06:49;1002.8;;;22.9;20.9
74427;BME280;62859;53.906;27.430;2023-04-24T14:11:07;1002.8;;;22.7;21
74427;BME280;62859;53.906;27.430;2023-04-24T14:16:29;1002.6;;;23;20.9
74427;BME280;62859;53.906;27.430;2023-04-24T14:21:37;1002.5;;;23.3;20.2
74427;BME280;62859;53.906;27.430;2023-04-24T14:26:49;1002.6;;;23.6;19.2
74427;BME280;62859;53.906;27.430;2023-04-24T14:31:17;1002.6;;;23.7;19.5
74427;BME280;62859;53.906;27.430;2023-04-24T14:36:41;1002.6;;;23.7;19.3
74427;BME280;62859;53.906;27.430;2023-04-24T14:41:39;1002.4;;;23.7;19.8
74427;BME280;62859;53.906;27.430;2023-04-24T14:46:43;1002.5;;;23.6;19.8
74427;BME280;62859;53.906;27.430;2023-04-24T14:51:33;1002.4;;;23.3;20.2
74427;BME280;62859;53.906;27.430;2023-04-24T14:56:19;1002.3;;;23.3;20.6
74427;BME280;62859;53.906;27.430;2023-04-24T15:01:49;1002.3;;;23.1;20.6
74427;BME280;62859;53.906;27.430;2023-04-24T15:06:51;1002.4;;;22.8;20.8
74427;BME280;62859;53.906;27.430;2023-04-24T15:11:19;1002.3;;;22.3;21.2
74427;BME280;62859;53.906;27.430;2023-04-24T15:16:51;1002.4;;;22;21.4
74427;BME280;62859;53.906;27.430;2023-04-24T15:21:29;1002.3;;;21.8;22
74427;BME280;62859;53.906;27.430;2023-04-24T15:26:17;1002.3;;;21.6;22.2
74427;BME280;62859;53.906;27.430;2023-04-24T15:31:29;1002.2;;;21.5;22.6
74427;BME280;62859;53.906;27.430;2023-04-24T15:36:53;1002.2;;;21.4;22.9
74427;BME280;62859;53.906;27.430;2023-04-24T15:41:17;1002.2;;;21.3;23
74427;BME280;62859;53.906;27.430;2023-04-24T15:46:27;1002.1;;;21.2;23.2
74427;BME280;62859;53.906;27.430;2023-04-24T15:51:53;1002.1;;;21.2;23.3
74427;BME280;62859;53.906;27.430;2023-04-24T15:56:29;1002.1;;;21.2;23.3
74427;BME280;62859;53.906;27.430;2023-04-24T16:01:39;1002.1;;;21.2;23.4
74427;BME280;62859;53.906;27.430;2023-04-24T16:06:07;1002.1;;;21;23.7
74427;BME280;62859;53.906;27.430;2023-04-24T16:11:41;1002.1;;;20.9;23.8
74427;BME280;62859;53.906;27.430;2023-04-24T16:16:37;1002;;;20.9;23.6
74427;BME280;62859;53.906;27.430;2023-04-24T16:21:29;1002;;;20.8;23.6
74427;BME280;62859;53.906;27.430;2023-04-24T16:26:29;1002;;;20.8;23.8
74427;BME280;62859;53.906;27.430;2023-04-24T16:31:37;1002;;;20.8;23.9
74427;BME280;62859;53.906;27.430;2023-04-24T16:36:07;1001.9;;;20.7;24.1
74427;BME280;62859;53.906;27.430;2023-04-24T16:41:29;1001.9;;;20.7;24.2
74427;BME280;62859;53.906;27.430;2023-04-24T16:46:07;1001.9;;;20.7;24.3
74427;BME280;62859;53.906;27.430;2023-04-24T16:51:25;1001.9;;;20.7;24.5
74427;BME280;62859;53.906;27.430;2023-04-24T16:56:41;1001.9;;;20.7;24.7
74427;BME280;62859;53.906;27.430;2023-04-24T17:01:43;1001.9;;;20.6;24.7
74427;BME280;62859;53.906;27.430;2023-04-24T17:06:13;1001.9;;;20.5;24.5
74427;BME280;62859;53.906;27.430;2023-04-24T17:11:51;1001.8;;;20.5;24.3
74427;BME280;62859;53.906;27.430;2023-04-24T17:16:29;1001.9;;;20.3;24.2
74427;BME280;62859;53.906;27.430;2023-04-24T17:21:07;1001.9;;;20.2;24.2
74427;BME280;62859;53.906;27.430;2023-04-24T17:26:27;1001.9;;;20.2;24.2
74427;BME280;62859;53.906;27.430;2023-04-24T17:31:39;1001.9;;;20;24.5
74427;BME280;62859;53.906;27.430;2023-04-24T17:36:31;1001.9;;;19.8;24.5
74427;BME280;62859;53.906;27.430;2023-04-24T17:41:39;1001.9;;;19.7;24.8
74427;BME280;62859;53.906;27.430;2023-04-24T17:46:39;1002;;;19.6;25
74427;BME280;62859;53.906;27.430;2023-04-24T17:51:43;1002;;;19.4;25.1
74427;BME280;62859;53.906;27.430;2023-04-24T17:56:27;1002;;;19.4;25.2
74427;BME280;62859;53.906;27.430;2023-04-24T18:01:19;1002;;;19.3;25.3
74427;BME280;62859;53.906;27.430;2023-04-24T18:06:53;1002;;;19.2;25.5
74427;BME280;62859;53.906;27.430;2023-04-24T18:11:39;1002;;;19.2;25.5
74427;BME280;62859;53.906;27.430;2023-04-24T18:16:19;1002;;;19;25.7
74427;BME280;62859;53.906;27.430;2023-04-24T18:21:53;1002;;;18.9;26
74427;BME280;62859;53.906;27.430;2023-04-24T18:26:17;1002.1;;;18.7;26.3
74427;BME280;62859;53.906;27.430;2023-04-24T18:31:07;1002.1;;;18.6;26.5
74427;BME280;62859;53.906;27.430;2023-04-24T18:36:29;1002.1;;;18.6;26.6
74427;BME280;62859;53.906;27.430;2023-04-24T18:41:53;1002.1;;;18.5;26.6
74427;BME280;62859;53.906;27.430;2023-04-24T18:46:17;1002.1;;;18.4;26.8
74427;BME280;62859;53.906;27.430;2023-04-24T18:51:25;1002.1;;;18.3;26.9
74427;BME280;62859;53.906;27.430;2023-04-24T18:56:51;1002.1;;;18.3;27
74427;BME280;62859;53.906;27.430;2023-04-24T19:01:39;1002.1;;;18.2;27.1
74427;BME280;62859;53.906;27.430;2023-04-24T19:06:13;1002.1;;;18.1;27.4
74427;BME280;62859;53.906;27.430;2023-04-24T19:11:17;1002.1;;;18.1;27.5
74427;BME280;62859;53.906;27.430;2023-04-24T19:16:49;1002.1;;;18;27.6
74427;BME280;62859;53.906;27.430;2023-04-24T19:21:37;1002.1;;;17.9;27.7
74427;BME280;62859;53.906;27.430;2023-04-24T19:26:17;1002.1;;;17.8;27.9
74427;BME280;62859;53.906;27.430;2023-04-24T19:31:19;1002.1;;;17.8;28.1
74427;BME280;62859;53.906;27.430;2023-04-24T19:36:15;1002.1;;;17.7;28.2
74427;BME280;62859;53.906;27.430;2023-04-24T19:41:07;1002;;;17.6;28.4
74427;BME280;62859;53.906;27.430;2023-04-24T19:46:17;1002;;;17.6;28.4
74427;BME280;62859;53.906;27.430;2023-04-24T19:51:17;1002;;;17.5;28.6
74427;BME280;62859;53.906;27.430;2023-04-24T19:56:19;1002;;;17.5;28.8
74427;BME280;62859;53.906;27.430;2023-04-24T20:01:49;1002;;;17.4;28.7
74427;BME280;62859;53.906;27.430;2023-04-24T20:06:43;1002.1;;;17.3;28.9
74427;BME280;62859;53.906;27.430;2023-04-24T20:11:07;1002.1;;;17.3;29.1
74427;BME280;62859;53.906;27.430;2023-04-24T20:16:53;1002.1;;;17.3;29.2
74427;BME280;62859;53.906;27.430;2023-04-24T20:21:07;1002.1;;;17.3;29.1
74427;BME280;62859;53.906;27.430;2023-04-24T20:26:19;1002.1;;;17.3;29.1
74427;BME280;62859;53.906;27.430;2023-04-24T20:31:37;1002.1;;;17.3;29.2
74427;BME280;62859;53.906;27.430;2023-04-24T20:36:51;1002.1;;;17.2;29.4
74427;BME280;62859;53.906;27.430;2023-04-24T20:41:17;1002.1;;;17.1;29.7
74427;BME280;62859;53.906;27.430;2023-04-24T20:46:49;1002.1;;;17.1;29.8
74427;BME280;62859;53.906;27.430;2023-04-24T20:51:37;1002.1;;;17.1;29.9
74427;BME280;62859;53.906;27.430;2023-04-24T20:56:09;1002;;;17;30.1
74427;BME280;62859;53.906;27.430;2023-04-24T21:01:23;1002.1;;;17.1;30.2
74427;BME280;62859;53.906;27.430;2023-04-24T21:06:07;1002.1;;;17.1;30.1
74427;BME280;62859;53.906;27.430;2023-04-24T21:11:47;1002.1;;;17.1;30.2
74427;BME280;62859;53.906;27.430;2023-04-24T21:16:49;1002;;;17.1;30.4
74427;BME280;62859;53.906;27.430;2023-04-24T21:21:07;1002;;;17;30.7
74427;BME280;62859;53.906;27.430;2023-04-24T21:26:49;1002;;;17;30.8
74427;BME280;62859;53.906;27.430;2023-04-24T21:31:07;1002;;;17;30.8
74427;BME280;62859;53.906;27.430;2023-04-24T21:36:09;1002;;;17.1;30.8
74427;BME280;62859;53.906;27.430;2023-04-24T21:41:31;1002;;;17.1;31.1
74427;BME280;62859;53.906;27.430;2023-04-24T21:46:53;1001.9;;;17;31.3
74427;BME280;62859;53.906;27.430;2023-04-24T21:51:19;1002;;;16.9;31.4
74427;BME280;62859;53.906;27.430;2023-04-24T21:56:09;1001.9;;;17;31.4
74427;BME280;62859;53.906;27.430;2023-04-24T22:01:53;1001.9;;;16.9;31.5
74427;BME280;62859;53.906;27.430;2023-04-24T22:06:27;1001.9;;;16.9;31.6
74427;BME280;62859;53.906;27.430;2023-04-24T22:11:09;1001.8;;;16.9;31.8
74427;BME280;62859;53.906;27.430;2023-04-24T22:16:20;1001.8;;;16.8;31.8
74427;BME280;62859;53.906;27.430;2023-04-24T22:21:51;1001.7;;;16.8;31.8
74427;BME280;62859;53.906;27.430;2023-04-24T22:26:39;1001.7;;;16.7;31.9
74427;BME280;62859;53.906;27.430;2023-04-24T22:31:09;1001.7;;;16.7;32.1
74427;BME280;62859;53.906;27.430;2023-04-24T22:36:31;1001.7;;;16.6;32.1
74427;BME280;62859;53.906;27.430;2023-04-24T22:41:41;1001.7;;;16.6;32.2
74427;BME280;62859;53.906;27.430;2023-04-24T22:46:09;1001.7;;;16.5;32.3
74427;BME280;62859;53.906;27.430;2023-04-24T22:51:31;1001.7;;;16.4;32.5
74427;BME280;62859;53.906;27.430;2023-04-24T22:56:09;1001.6;;;16.3;32.7
74427;BME280;62859;53.906;27.430;2023-04-24T23:01:09;1001.6;;;16.2;33
74427;BME280;62859;53.906;27.430;2023-04-24T23:06:41;1001.5;;;16.2;33
74427;BME280;62859;53.906;27.430;2023-04-24T23:11:33;1001.5;;;16.1;33.1
74427;BME280;62859;53.906;27.430;2023-04-24T23:16:09;1001.5;;;16;33.3
74427;BME280;62859;53.906;27.430;2023-04-24T23:21:45;1001.4;;;16;33.4
74427;BME280;62859;53.906;27.430;2023-04-24T23:26:09;1001.4;;;16;33.4
74427;BME280;62859;53.906;27.430;2023-04-24T23:31:21;1001.3;;;16.1;33.4
74427;BME280;62859;53.906;27.430;2023-04-24T23:36:39;1001.3;;;16;33.5
74427;BME280;62859;53.906;27.430;2023-04-24T23:41:51;1001.3;;;16;33.6
74427;BME280;62859;53.906;27.430;2023-04-24T23:46:21;1001.2;;;15.8;33.9
74427;BME280;62859;53.906;27.430;2023-04-24T23:51:51;1001.2;;;15.7;34.2
74427;BME280;62859;53.906;27.430;2023-04-24T23:56:53;1001.1;;;15.6;34.4
